createdAt,value
2017-12-22T00:01:42.060Z,5.40
2017-12-22T00:04:12.708Z,5.40
2017-12-22T00:06:42.527Z,5.40
2017-12-22T00:09:09.953Z,5.50
2017-12-22T00:11:37.376Z,5.50
2017-12-22T00:14:04.824Z,5.50
2017-12-22T00:16:32.504Z,5.40
2017-12-22T00:18:59.928Z,5.40
2017-12-22T00:21:27.359Z,5.40
2017-12-22T00:23:55.559Z,5.40
2017-12-22T00:26:22.980Z,5.40
2017-12-22T00:28:52.252Z,5.30
2017-12-22T00:31:19.656Z,5.30
2017-12-22T00:33:47.099Z,5.30
2017-12-22T00:36:15.676Z,5.30
2017-12-22T00:38:43.088Z,5.30
2017-12-22T00:41:10.521Z,5.30
2017-12-22T00:43:38.026Z,5.30
2017-12-22T00:46:05.404Z,5.30
2017-12-22T00:48:33.596Z,5.30
2017-12-22T00:51:01.013Z,5.30
2017-12-22T00:53:28.738Z,5.30
2017-12-22T00:55:56.140Z,5.30
2017-12-22T00:58:23.561Z,5.30
2017-12-22T01:00:51.264Z,5.30
2017-12-22T01:03:19.131Z,5.30
2017-12-22T01:05:47.342Z,5.30
2017-12-22T01:08:14.768Z,5.30
2017-12-22T01:10:43.531Z,5.30
2017-12-22T01:13:17.796Z,5.30
2017-12-22T01:15:50.901Z,5.30
2017-12-22T01:18:23.954Z,5.30
2017-12-22T01:20:52.149Z,5.40
2017-12-22T01:23:19.573Z,5.40
2017-12-22T01:25:47.005Z,5.40
2017-12-22T01:28:14.432Z,5.50
2017-12-22T01:30:42.276Z,5.40
2017-12-22T01:33:09.701Z,5.50
2017-12-22T01:35:37.132Z,5.50
2017-12-22T01:38:04.557Z,5.50
2017-12-22T01:40:31.997Z,5.50
2017-12-22T01:43:00.200Z,5.50
2017-12-22T01:45:27.634Z,5.50
2017-12-22T01:47:55.840Z,5.50
2017-12-22T01:50:23.676Z,5.50
2017-12-22T01:52:52.457Z,5.50
2017-12-22T01:55:21.211Z,5.50
2017-12-22T01:57:48.637Z,5.50
2017-12-22T02:00:16.057Z,5.50
2017-12-22T02:02:46.816Z,5.50
2017-12-22T02:05:14.293Z,5.60
2017-12-22T02:07:41.664Z,5.50
2017-12-22T02:10:09.350Z,5.50
2017-12-22T02:12:36.761Z,5.50
2017-12-22T02:15:04.192Z,5.50
2017-12-22T02:17:31.629Z,5.50
2017-12-22T02:19:59.868Z,5.50
2017-12-22T02:22:27.998Z,5.50
2017-12-22T02:24:55.985Z,5.50
2017-12-22T02:27:24.261Z,5.50
2017-12-22T02:29:51.685Z,5.60
2017-12-22T02:32:19.894Z,5.50
2017-12-22T02:34:47.324Z,5.50
2017-12-22T02:37:15.530Z,5.50
2017-12-22T02:39:42.964Z,5.50
2017-12-22T02:42:10.389Z,5.50
2017-12-22T02:44:38.213Z,5.50
2017-12-22T02:47:05.660Z,5.50
2017-12-22T02:49:33.206Z,5.50
2017-12-22T02:52:00.634Z,5.50
2017-12-22T02:54:28.821Z,5.60
2017-12-22T02:56:57.024Z,5.60
2017-12-22T03:02:28.625Z,5.60
2017-12-22T03:04:56.364Z,5.60
2017-12-22T03:07:23.796Z,5.50
2017-12-22T03:09:51.220Z,5.60
2017-12-22T03:12:18.652Z,5.60
2017-12-22T03:14:52.597Z,5.60
2017-12-22T03:17:20.805Z,5.60
2017-12-22T03:19:50.114Z,5.60
2017-12-22T03:22:17.529Z,5.60
2017-12-22T03:24:45.784Z,5.60
2017-12-22T03:27:13.214Z,5.60
2017-12-22T03:29:40.644Z,5.60
2017-12-22T03:32:08.072Z,5.60
2017-12-22T03:34:35.506Z,5.60
2017-12-22T03:37:03.041Z,5.60
2017-12-22T03:39:30.473Z,5.60
2017-12-22T03:41:57.904Z,5.60
2017-12-22T03:44:26.107Z,5.70
2017-12-22T03:46:53.556Z,5.70
2017-12-22T03:49:20.992Z,5.70
2017-12-22T03:51:49.190Z,5.70
2017-12-22T03:54:17.384Z,5.70
2017-12-22T03:56:44.812Z,5.70
2017-12-22T03:59:13.021Z,5.70
2017-12-22T04:01:41.235Z,5.70
2017-12-22T04:04:09.444Z,5.70
2017-12-22T04:06:38.165Z,5.70
2017-12-22T04:09:05.601Z,5.70
2017-12-22T04:11:33.020Z,5.70
2017-12-22T04:14:00.459Z,5.70
2017-12-22T04:16:28.877Z,5.70
2017-12-22T04:18:56.337Z,5.70
2017-12-22T04:21:24.516Z,5.60
2017-12-22T04:23:51.975Z,5.60
2017-12-22T04:26:19.417Z,5.70
2017-12-22T04:28:48.459Z,5.70
2017-12-22T04:31:15.902Z,5.70
2017-12-22T04:33:43.341Z,5.70
2017-12-22T04:36:11.223Z,5.70
2017-12-22T04:38:38.644Z,5.70
2017-12-22T04:41:06.859Z,5.70
2017-12-22T04:43:34.296Z,5.70
2017-12-22T04:46:01.728Z,5.70
2017-12-22T04:48:31.705Z,5.70
2017-12-22T04:51:00.867Z,5.70
2017-12-22T04:53:29.060Z,5.70
2017-12-22T04:55:56.748Z,5.70
2017-12-22T04:58:24.152Z,5.80
2017-12-22T05:00:51.584Z,5.70
2017-12-22T05:03:19.013Z,5.70
2017-12-22T05:05:46.456Z,5.70
2017-12-22T05:08:13.888Z,5.70
2017-12-22T05:10:41.329Z,5.70
2017-12-22T05:13:09.521Z,5.70
2017-12-22T05:15:36.957Z,5.70
2017-12-22T05:18:05.144Z,5.80
2017-12-22T05:20:32.590Z,5.80
2017-12-22T05:23:01.529Z,5.80
2017-12-22T05:25:28.953Z,5.80
2017-12-22T05:27:56.390Z,5.80
2017-12-22T05:30:24.588Z,5.80
2017-12-22T05:32:52.013Z,5.80
2017-12-22T05:35:20.210Z,5.80
2017-12-22T05:37:50.134Z,5.80
2017-12-22T05:40:17.552Z,5.80
2017-12-22T05:42:44.989Z,5.80
2017-12-22T05:45:12.422Z,5.90
2017-12-22T05:47:41.102Z,5.80
2017-12-22T05:50:08.516Z,5.80
2017-12-22T05:52:36.716Z,5.80
2017-12-22T05:55:04.132Z,5.90
2017-12-22T05:57:31.852Z,5.90
2017-12-22T05:59:59.260Z,5.90
2017-12-22T06:02:26.694Z,5.90
2017-12-22T06:04:54.156Z,5.90
2017-12-22T06:07:21.589Z,5.90
2017-12-22T06:09:49.020Z,5.90
2017-12-22T06:12:16.463Z,5.90
2017-12-22T06:14:45.114Z,5.80
2017-12-22T06:17:12.545Z,5.80
2017-12-22T06:19:40.600Z,5.90
2017-12-22T06:22:08.024Z,5.80
2017-12-22T06:24:36.221Z,5.90
2017-12-22T06:27:03.652Z,5.80
2017-12-22T06:29:31.941Z,5.90
2017-12-22T06:31:59.369Z,5.90
2017-12-22T06:34:27.769Z,5.90
2017-12-22T06:36:56.493Z,5.90
2017-12-22T06:39:24.519Z,5.90
2017-12-22T06:41:51.977Z,5.90
2017-12-22T06:44:33.917Z,5.90
2017-12-22T06:47:01.333Z,5.90
2017-12-22T06:49:29.550Z,5.90
2017-12-22T06:51:57.108Z,5.90
2017-12-22T06:54:24.848Z,5.90
2017-12-22T06:56:52.276Z,5.90
2017-12-22T06:59:20.229Z,5.90
2017-12-22T07:01:49.292Z,5.90
2017-12-22T07:04:18.747Z,5.90
2017-12-22T07:06:46.181Z,5.90
2017-12-22T07:09:14.443Z,5.90
2017-12-22T07:11:54.100Z,5.90
2017-12-22T07:14:21.538Z,5.90
2017-12-22T07:16:49.245Z,5.90
2017-12-22T07:19:18.369Z,5.90
2017-12-22T07:21:45.950Z,5.90
2017-12-22T07:24:14.947Z,5.90
2017-12-22T07:26:42.383Z,5.90
2017-12-22T07:29:09.835Z,5.90
2017-12-22T07:31:37.385Z,5.90
2017-12-22T07:34:04.796Z,5.90
2017-12-22T07:36:32.335Z,6.00
2017-12-22T07:39:00.307Z,5.90
2017-12-22T07:41:28.524Z,5.90
2017-12-22T07:43:55.961Z,5.90
2017-12-22T07:46:24.023Z,5.90
2017-12-22T07:48:52.261Z,5.90
2017-12-22T07:51:19.689Z,6.00
2017-12-22T07:53:47.888Z,6.00
2017-12-22T07:56:15.325Z,6.00
2017-12-22T07:58:43.538Z,6.00
2017-12-22T08:01:13.401Z,6.00
2017-12-22T08:03:41.380Z,6.00
2017-12-22T08:06:08.821Z,6.00
2017-12-22T08:08:36.677Z,6.10
2017-12-22T08:11:04.121Z,6.10
2017-12-22T08:13:31.550Z,6.10
2017-12-22T08:15:58.990Z,6.10
2017-12-22T08:18:27.738Z,6.10
2017-12-22T08:20:55.244Z,6.10
2017-12-22T08:23:22.677Z,6.10
2017-12-22T08:25:50.156Z,6.20
2017-12-22T08:28:17.600Z,6.20
2017-12-22T08:30:45.836Z,6.20
2017-12-22T08:33:13.264Z,6.20
2017-12-22T08:35:40.718Z,6.20
2017-12-22T08:38:08.205Z,6.30
2017-12-22T08:40:36.165Z,6.30
2017-12-22T08:43:03.612Z,6.20
2017-12-22T08:45:31.065Z,6.20
2017-12-22T08:47:58.512Z,6.30
2017-12-22T08:50:25.984Z,6.30
2017-12-22T08:52:53.435Z,6.30
2017-12-22T08:55:22.881Z,6.30
2017-12-22T08:57:50.326Z,6.30
2017-12-22T09:00:17.784Z,6.30
2017-12-22T09:02:45.303Z,6.30
2017-12-22T09:05:12.718Z,6.30
2017-12-22T09:07:40.155Z,6.30
2017-12-22T09:10:07.577Z,6.30
2017-12-22T09:12:35.006Z,6.40
2017-12-22T09:21:04.376Z,6.50
2017-12-22T09:23:31.814Z,6.60
2017-12-22T09:25:59.256Z,6.60
2017-12-22T09:28:27.757Z,6.60
2017-12-22T09:30:55.943Z,6.60
2017-12-22T09:33:24.212Z,6.60
2017-12-22T09:35:51.734Z,6.70
2017-12-22T09:38:19.448Z,6.70
2017-12-22T09:40:46.861Z,6.70
2017-12-22T09:43:15.324Z,6.80
2017-12-22T09:45:49.163Z,6.80
2017-12-22T09:48:17.934Z,6.80
2017-12-22T09:50:46.732Z,6.80
2017-12-22T09:53:16.384Z,6.80
2017-12-22T09:55:49.499Z,6.80
2017-12-22T09:58:17.381Z,6.80
2017-12-22T10:00:55.561Z,6.90
2017-12-22T10:03:22.993Z,6.80
2017-12-22T10:05:50.439Z,6.90
2017-12-22T10:08:36.308Z,6.90
2017-12-22T10:11:05.558Z,7.00
2017-12-22T10:13:33.841Z,6.90
2017-12-22T10:16:02.121Z,7.00
2017-12-22T10:18:29.564Z,7.00
2017-12-22T10:20:57.033Z,7.00
2017-12-22T10:23:24.461Z,7.00
2017-12-22T10:25:51.902Z,7.10
2017-12-22T10:28:20.083Z,7.10
2017-12-22T10:30:47.522Z,7.10
2017-12-22T10:33:14.950Z,7.10
2017-12-22T10:35:42.380Z,7.20
2017-12-22T10:38:10.121Z,7.20
2017-12-22T10:40:37.778Z,7.30
2017-12-22T10:43:05.209Z,7.30
2017-12-22T10:45:33.408Z,7.30
2017-12-22T10:48:00.840Z,7.30
2017-12-22T10:50:28.269Z,7.40
2017-12-22T10:52:55.829Z,7.50
2017-12-22T10:55:23.248Z,7.60
2017-12-22T10:57:51.386Z,7.70
2017-12-22T11:00:19.583Z,7.90
2017-12-22T11:02:47.049Z,7.90
2017-12-22T11:05:14.881Z,7.90
2017-12-22T11:07:43.487Z,7.70
2017-12-22T11:10:10.928Z,7.70
2017-12-22T11:12:39.120Z,7.40
2017-12-22T11:15:06.681Z,7.40
2017-12-22T11:17:34.798Z,7.40
2017-12-22T11:20:02.252Z,7.40
2017-12-22T11:22:29.676Z,7.40
2017-12-22T11:24:57.382Z,7.50
2017-12-22T11:27:25.214Z,7.40
2017-12-22T11:29:54.615Z,7.50
2017-12-22T11:32:22.048Z,7.50
2017-12-22T11:34:49.633Z,7.50
2017-12-22T11:37:17.141Z,7.60
2017-12-22T11:39:44.576Z,7.60
2017-12-22T11:42:12.207Z,7.60
2017-12-22T11:44:39.626Z,7.50
2017-12-22T11:47:07.869Z,7.40
2017-12-22T11:49:35.320Z,7.40
2017-12-22T11:52:02.893Z,7.50
2017-12-22T11:54:30.933Z,7.50
2017-12-22T11:56:58.536Z,7.50
2017-12-22T11:59:25.948Z,7.60
2017-12-22T12:01:53.606Z,7.50
2017-12-22T12:04:21.909Z,7.60
2017-12-22T12:06:49.439Z,7.60
2017-12-22T12:09:16.885Z,7.70
2017-12-22T12:11:44.320Z,7.80
2017-12-22T12:14:12.529Z,7.70
2017-12-22T12:16:39.974Z,7.80
2017-12-22T12:19:07.618Z,7.70
2017-12-22T12:21:35.897Z,7.70
2017-12-22T12:24:03.462Z,7.60
2017-12-22T12:26:30.892Z,7.60
2017-12-22T12:28:58.751Z,7.60
2017-12-22T12:31:26.925Z,7.60
2017-12-22T12:33:54.515Z,7.50
2017-12-22T12:36:21.936Z,7.50
2017-12-22T12:38:49.393Z,7.50
2017-12-22T12:41:16.831Z,7.50
2017-12-22T12:43:44.274Z,7.50
2017-12-22T12:46:11.705Z,7.60
2017-12-22T12:48:39.577Z,7.60
2017-12-22T12:51:07.018Z,7.60
2017-12-22T12:53:35.232Z,7.60
2017-12-22T12:56:03.844Z,7.60
2017-12-22T12:58:31.598Z,7.60
2017-12-22T13:01:00.925Z,7.70
2017-12-22T13:03:28.365Z,7.70
2017-12-22T13:05:55.792Z,7.70
2017-12-22T13:08:24.017Z,7.60
2017-12-22T13:10:52.290Z,7.60
2017-12-22T13:13:19.720Z,7.60
2017-12-22T13:15:47.765Z,7.60
2017-12-22T13:18:15.213Z,7.50
2017-12-22T13:20:43.441Z,7.40
2017-12-22T13:23:10.874Z,7.40
2017-12-22T13:25:38.312Z,7.40
2017-12-22T13:28:06.513Z,7.50
2017-12-22T13:30:33.969Z,7.50
2017-12-22T13:33:01.414Z,7.60
2017-12-22T13:35:29.390Z,7.60
2017-12-22T13:37:57.257Z,7.70
2017-12-22T13:40:24.699Z,7.80
2017-12-22T13:42:52.116Z,7.70
2017-12-22T13:45:21.040Z,7.80
2017-12-22T13:47:48.468Z,7.80
2017-12-22T13:50:16.672Z,7.80
2017-12-22T13:52:44.132Z,7.80
2017-12-22T13:55:11.572Z,7.80
2017-12-22T13:57:39.401Z,7.80
2017-12-22T14:00:06.837Z,7.70
2017-12-22T14:02:34.786Z,7.60
2017-12-22T14:05:02.777Z,7.60
2017-12-22T14:07:30.205Z,7.60
2017-12-22T14:09:57.709Z,7.60
2017-12-22T14:12:25.711Z,7.50
2017-12-22T14:14:53.141Z,7.60
2017-12-22T14:17:20.587Z,7.50
2017-12-22T14:19:48.008Z,7.50
2017-12-22T14:22:15.460Z,7.50
2017-12-22T14:24:43.400Z,7.50
2017-12-22T14:27:10.833Z,7.50
2017-12-22T14:29:39.237Z,7.40
2017-12-22T14:32:07.418Z,7.40
2017-12-22T14:34:34.841Z,7.40
2017-12-22T14:37:02.742Z,7.40
2017-12-22T14:39:30.925Z,7.40
2017-12-22T14:41:59.139Z,7.30
2017-12-22T14:44:26.576Z,7.40
2017-12-22T14:46:54.004Z,7.40
2017-12-22T14:49:21.962Z,7.40
2017-12-22T14:51:50.523Z,7.40
2017-12-22T14:54:18.981Z,7.40
2017-12-22T14:56:46.920Z,7.40
2017-12-22T14:59:14.340Z,7.40
2017-12-22T15:01:42.826Z,7.40
2017-12-22T15:04:11.025Z,7.40
2017-12-22T15:06:38.452Z,7.30
2017-12-22T15:09:06.640Z,7.20
2017-12-22T15:11:34.843Z,7.30
2017-12-22T15:14:02.793Z,7.20
2017-12-22T15:16:30.761Z,7.30
2017-12-22T15:18:58.203Z,7.20
2017-12-22T15:21:26.402Z,7.30
2017-12-22T15:23:54.271Z,7.20
2017-12-22T15:26:21.695Z,7.30
2017-12-22T15:28:49.888Z,7.30
2017-12-22T15:31:17.344Z,7.30
2017-12-22T15:33:45.542Z,7.30
2017-12-22T15:36:12.966Z,7.30
2017-12-22T15:38:41.174Z,7.30
2017-12-22T15:41:08.634Z,7.30
2017-12-22T15:43:36.069Z,7.30
2017-12-22T15:46:03.505Z,7.20
2017-12-22T15:48:31.718Z,7.20
2017-12-22T15:50:59.148Z,7.20
2017-12-22T15:53:26.589Z,7.20
2017-12-22T15:55:54.807Z,7.20
2017-12-22T15:58:22.237Z,7.20
2017-12-22T16:00:52.008Z,7.30
2017-12-22T16:03:19.444Z,7.20
2017-12-22T16:05:46.868Z,7.20
2017-12-22T16:08:14.573Z,7.20
2017-12-22T16:10:42.111Z,7.30
2017-12-22T16:13:09.555Z,7.30
2017-12-22T16:15:36.988Z,7.30
2017-12-22T16:18:04.424Z,7.30
2017-12-22T16:20:32.767Z,7.30
2017-12-22T16:23:00.201Z,7.30
2017-12-22T16:25:27.644Z,7.30
2017-12-22T16:27:56.729Z,7.30
2017-12-22T16:30:24.928Z,7.30
2017-12-22T16:32:52.350Z,7.30
2017-12-22T16:35:19.793Z,7.30
2017-12-22T16:37:47.225Z,7.20
2017-12-22T16:40:14.675Z,7.30
2017-12-22T16:42:42.955Z,7.20
2017-12-22T16:48:04.280Z,7.20
2017-12-22T16:50:31.719Z,7.30
2017-12-22T16:52:59.409Z,7.20
2017-12-22T16:55:26.816Z,7.20
2017-12-22T16:57:55.453Z,7.20
2017-12-22T17:00:23.356Z,7.10
2017-12-22T17:02:50.792Z,7.20
2017-12-22T17:05:18.239Z,7.20
2017-12-22T17:07:46.205Z,7.20
2017-12-22T17:10:13.646Z,7.20
2017-12-22T17:12:41.110Z,7.20
2017-12-22T17:15:08.541Z,7.20
2017-12-22T17:17:35.966Z,7.20
2017-12-22T17:20:03.720Z,7.20
2017-12-22T17:22:31.156Z,7.20
2017-12-22T17:24:58.620Z,7.20
2017-12-22T17:27:26.053Z,7.20
2017-12-22T17:29:53.515Z,7.20
2017-12-22T17:32:21.388Z,7.20
2017-12-22T17:34:49.272Z,7.20
2017-12-22T17:37:16.705Z,7.20
2017-12-22T17:39:44.166Z,7.20
2017-12-22T17:42:12.162Z,7.20
2017-12-22T17:44:39.593Z,7.20
2017-12-22T17:47:07.798Z,7.20
2017-12-22T17:49:35.228Z,7.20
2017-12-22T17:52:02.674Z,7.20
2017-12-22T17:54:30.113Z,7.20
2017-12-22T17:56:57.581Z,7.20
2017-12-22T17:59:25.007Z,7.20
2017-12-22T18:01:52.440Z,7.10
2017-12-22T18:04:19.880Z,7.10
2017-12-22T18:06:47.365Z,7.10
2017-12-22T18:09:14.992Z,7.10
2017-12-22T18:11:42.977Z,7.00
2017-12-22T18:14:10.419Z,7.00
2017-12-22T18:16:37.858Z,7.00
2017-12-22T18:19:05.315Z,7.00
2017-12-22T18:21:32.755Z,6.90
2017-12-22T18:24:00.230Z,6.90
2017-12-22T18:26:34.217Z,6.90
2017-12-22T18:29:02.415Z,6.90
2017-12-22T18:31:30.624Z,6.90
2017-12-22T18:33:58.060Z,6.90
2017-12-22T18:36:25.502Z,6.80
2017-12-22T18:38:52.920Z,6.80
2017-12-22T18:41:21.135Z,6.80
2017-12-22T18:43:48.565Z,6.80
2017-12-22T18:46:17.297Z,6.80
2017-12-22T18:48:45.269Z,6.70
2017-12-22T18:51:13.221Z,6.80
2017-12-22T18:53:40.717Z,6.80
2017-12-22T18:56:08.401Z,6.80
2017-12-22T18:58:36.493Z,6.80
2017-12-22T19:01:04.668Z,6.80
2017-12-22T19:03:32.105Z,6.80
2017-12-22T19:05:59.529Z,6.80
2017-12-22T19:08:27.944Z,6.80
2017-12-22T19:10:56.141Z,6.80
2017-12-22T19:13:23.661Z,6.70
2017-12-22T19:15:51.094Z,6.80
2017-12-22T19:18:18.529Z,6.80
2017-12-22T19:20:47.332Z,6.80
2017-12-22T19:23:14.769Z,6.80
2017-12-22T19:25:42.196Z,6.80
2017-12-22T19:28:10.401Z,6.70
2017-12-22T19:30:37.839Z,6.70
2017-12-22T19:33:05.269Z,6.70
2017-12-22T19:35:33.467Z,6.60
2017-12-22T19:38:00.893Z,6.60
2017-12-22T19:40:28.326Z,6.60
2017-12-22T19:42:55.804Z,6.60
2017-12-22T19:45:23.232Z,6.60
2017-12-22T19:47:50.658Z,6.60
2017-12-22T19:50:18.125Z,6.60
2017-12-22T19:52:45.564Z,6.60
2017-12-22T19:55:14.583Z,6.60
2017-12-22T19:57:41.984Z,6.60
2017-12-22T20:00:09.812Z,6.60
2017-12-22T20:02:37.515Z,6.60
2017-12-22T20:05:06.624Z,6.60
2017-12-22T20:07:35.249Z,6.70
2017-12-22T20:10:02.676Z,6.70
2017-12-22T20:12:31.546Z,6.70
2017-12-22T20:14:58.967Z,6.60
2017-12-22T20:17:26.388Z,6.60
2017-12-22T20:19:54.749Z,6.60
2017-12-22T20:22:23.059Z,6.60
2017-12-22T20:24:50.930Z,6.60
2017-12-22T20:27:18.428Z,6.60
2017-12-22T20:29:45.891Z,6.70
2017-12-22T20:32:13.306Z,6.60
2017-12-22T20:34:40.757Z,6.70
2017-12-22T20:37:08.177Z,6.70
2017-12-22T20:39:36.388Z,6.70
2017-12-22T20:42:03.820Z,6.70
2017-12-22T20:44:31.696Z,6.70
2017-12-22T20:46:59.122Z,6.70
2017-12-22T20:49:26.964Z,6.70
2017-12-22T20:51:54.394Z,6.70
2017-12-22T20:54:22.684Z,6.60
2017-12-22T20:56:50.535Z,6.60
2017-12-22T20:59:30.381Z,6.50
2017-12-22T21:01:57.811Z,6.40
2017-12-22T21:04:26.008Z,6.10
2017-12-22T21:06:53.501Z,6.10
2017-12-22T21:09:22.564Z,6.10
2017-12-22T21:11:49.988Z,6.10
2017-12-22T21:14:18.185Z,6.30
2017-12-22T21:16:45.621Z,6.30
2017-12-22T21:19:13.813Z,6.40
2017-12-22T21:21:41.240Z,6.40
2017-12-22T21:24:08.668Z,6.50
2017-12-22T21:26:36.104Z,6.60
2017-12-22T21:29:03.549Z,6.60
2017-12-22T21:31:31.736Z,6.60
2017-12-22T21:33:59.869Z,6.60
2017-12-22T21:36:28.064Z,6.60
2017-12-22T21:38:56.173Z,6.60
2017-12-22T21:41:23.600Z,6.60
2017-12-22T21:43:51.027Z,6.70
2017-12-22T21:46:19.226Z,6.60
2017-12-22T21:48:46.660Z,6.60
2017-12-22T21:51:14.868Z,6.60
2017-12-22T21:53:42.293Z,6.60
2017-12-22T21:56:10.523Z,6.60
2017-12-22T21:58:37.942Z,6.60
2017-12-22T22:01:05.377Z,6.60
2017-12-22T22:03:34.012Z,6.60
2017-12-22T22:06:01.450Z,6.60
2017-12-22T22:08:28.878Z,6.60
2017-12-22T22:10:57.085Z,6.50
2017-12-22T22:13:24.509Z,6.50
2017-12-22T22:15:52.721Z,6.60
2017-12-22T22:18:20.153Z,6.60
2017-12-22T22:20:48.103Z,6.70
2017-12-22T22:23:17.549Z,6.70
2017-12-22T22:25:45.011Z,6.70
2017-12-22T22:28:13.172Z,6.60
2017-12-22T22:30:41.015Z,6.60
2017-12-22T22:33:08.452Z,6.60
2017-12-22T22:35:35.885Z,6.50
2017-12-22T22:38:03.325Z,6.50
2017-12-22T22:40:44.482Z,6.50
2017-12-22T22:43:12.446Z,6.60
2017-12-22T22:45:41.131Z,6.60
2017-12-22T22:48:08.556Z,6.60
2017-12-22T22:50:35.992Z,6.60
2017-12-22T22:53:03.860Z,6.60
2017-12-22T22:55:31.285Z,6.60
2017-12-22T22:57:58.721Z,6.60
2017-12-22T23:00:26.154Z,6.60
2017-12-22T23:02:54.017Z,6.60
2017-12-22T23:05:21.862Z,6.60
2017-12-22T23:07:49.293Z,6.60
2017-12-22T23:10:16.738Z,6.60
2017-12-22T23:12:44.165Z,6.60
2017-12-22T23:15:15.253Z,6.60
2017-12-22T23:17:43.457Z,6.60
2017-12-22T23:20:10.896Z,6.60
2017-12-22T23:22:39.043Z,6.60
2017-12-22T23:25:07.052Z,6.50
2017-12-22T23:27:34.495Z,6.40
2017-12-22T23:30:02.608Z,6.40
2017-12-22T23:32:30.805Z,6.40
2017-12-22T23:34:58.237Z,6.40
2017-12-22T23:37:25.665Z,6.30
2017-12-22T23:39:53.141Z,6.20
2017-12-22T23:42:20.574Z,6.10
2017-12-22T23:44:48.686Z,6.10
2017-12-22T23:47:16.092Z,6.00
2017-12-22T23:49:43.535Z,6.10
2017-12-22T23:52:10.965Z,6.10
2017-12-22T23:54:39.161Z,6.10
2017-12-22T23:57:07.271Z,6.10
2017-12-22T23:59:34.704Z,6.10
